Time;durP1;ratioP1;P1;durP2;ratioP2;P2;SDS_P1;SDS_P2;PMS_P1;PMS_P2;Temp;Humidity;BMP_temperature;BMP_pressure;BME280_temperature;BME280_humidity;BME280_pressure;Samples;Min_cycle;Max_cycle;Signal;HPM_P1;HPM_P2
2022/03/29 00:01:00;;;;;;;22.73;13.18;;;256.80;2252.80;;;;;;4971169;28;20389;-56
2022/03/29 00:03:26;;;;;;;18.23;11.32;;;256.90;2252.80;;;;;;4970952;28;20047;-60
2022/03/29 00:05:52;;;;;;;16.45;10.68;;;256.90;2252.80;;;;;;4971405;28;20426;-56
2022/03/29 00:08:19;;;;;;;18.33;11.32;;;256.90;2252.80;;;;;;4971239;28;20536;-54
2022/03/29 00:10:45;;;;;;;15.52;10.80;;;256.90;2252.80;;;;;;4970912;28;20113;-56
2022/03/29 00:13:11;;;;;;;17.85;11.07;;;281.60;2278.40;;;;;;4971212;28;20038;-62
2022/03/29 00:15:37;;;;;;;20.30;12.07;;;256.90;2252.80;;;;;;4970911;28;20117;-62
2022/03/29 00:18:03;;;;;;;18.58;11.45;;;256.90;2252.80;;;;;;4970931;28;20058;-63
2022/03/29 00:20:29;;;;;;;18.92;12.43;;;256.80;2252.80;;;;;;4971135;28;20047;-58
2022/03/29 00:22:55;;;;;;;30.65;19.85;;;256.70;2252.80;;;;;;4973500;28;20022;-55
2022/03/29 00:25:21;;;;;;;20.30;14.98;;;256.60;2252.80;;;;;;4975148;28;20478;-55
2022/03/29 00:27:49;;;;;;;20.15;12.77;;;256.60;2252.80;;;;;;4974694;28;20026;-59
2022/03/29 00:30:16;;;;;;;17.70;11.70;;;256.50;2252.80;;;;;;4974679;28;20030;-56
2022/03/29 00:32:43;;;;;;;20.63;12.23;;;256.50;2252.80;;;;;;4974854;28;20587;-55
2022/03/29 00:35:10;;;;;;;20.48;14.05;;;256.40;2252.80;;;;;;4975005;28;20032;-61
2022/03/29 00:37:39;;;;;;;16.65;12.32;;;256.40;2252.80;;;;;;4974974;28;20062;-63
2022/03/29 00:40:07;;;;;;;24.52;14.57;;;256.10;2252.80;;;;;;4974620;28;20027;-63
2022/03/29 00:42:33;;;;;;;24.35;14.98;;;256.20;2252.80;;;;;;4974432;28;20092;-58
2022/03/29 00:44:59;;;;;;;20.10;13.25;;;256.10;2252.80;;;;;;4974762;28;20031;-59
2022/03/29 00:47:24;;;;;;;23.30;12.90;;;256.00;2252.80;;;;;;4974808;28;20030;-63
2022/03/29 00:49:50;;;;;;;22.73;14.73;;;231.30;2252.80;;;;;;4974696;28;20150;-65
2022/03/29 00:52:17;;;;;;;19.45;13.68;;;231.10;2252.80;;;;;;4971056;28;20117;-58
2022/03/29 00:54:44;;;;;;;23.48;14.98;;;231.10;2252.80;;;;;;4963271;28;20019;-56
2022/03/29 00:57:11;;;;;;;26.75;14.60;;;231.10;2252.80;;;;;;4965352;28;20030;-55
2022/03/29 00:59:39;;;;;;;18.63;13.70;;;231.00;2252.80;;;;;;4964356;28;20019;-56
2022/03/29 01:02:05;;;;;;;18.77;13.25;;;231.00;2252.80;;;;;;4965459;28;20023;-58
2022/03/29 01:04:31;;;;;;;19.83;13.70;;;231.10;2252.80;;;;;;4963658;28;20118;-57
2022/03/29 01:06:58;;;;;;;27.52;15.75;;;231.10;2252.80;;;;;;4964193;28;20550;-62
2022/03/29 01:09:26;;;;;;;22.30;15.23;;;231.10;2252.80;;;;;;4964854;28;20486;-63
2022/03/29 01:11:52;;;;;;;20.90;13.85;;;231.10;2252.80;;;;;;4963410;28;20047;-63
2022/03/29 01:14:20;;;;;;;20.40;14.30;;;231.20;2252.80;;;;;;4971356;28;20378;-64
2022/03/29 01:19:30;;;;;;;26.13;14.80;;;231.30;2252.80;;;;;;4974321;28;20406;-62
2022/03/29 01:21:56;;;;;;;26.33;16.92;;;231.30;2252.80;;;;;;4974128;28;20101;-55
2022/03/29 01:24:25;;;;;;;21.55;15.30;;;231.30;2252.80;;;;;;4973992;28;20442;-65
2022/03/29 01:26:52;;;;;;;22.38;15.60;;;231.20;2252.80;;;;;;4974030;28;20035;-56
2022/03/29 01:29:22;;;;;;;23.38;16.10;;;231.10;2252.80;;;;;;4973890;28;20038;-58
2022/03/29 01:31:51;;;;;;;23.58;15.32;;;231.10;2252.80;;;;;;4973861;28;20379;-63
2022/03/29 01:34:19;;;;;;;27.10;16.95;;;231.00;2252.80;;;;;;4973462;28;20081;-63
2022/03/29 01:36:46;;;;;;;31.13;16.42;;;230.90;2252.80;;;;;;4973610;28;20033;-56
2022/03/29 01:39:12;;;;;;;22.77;16.42;;;230.80;2252.80;;;;;;4973843;28;20031;-55
2022/03/29 01:41:38;;;;;;;25.45;15.60;;;230.80;2252.80;;;;;;4973249;28;20030;-61
2022/03/29 01:44:08;;;;;;;25.45;16.58;;;230.80;2252.80;;;;;;4973437;28;20057;-60
2022/03/29 01:46:33;;;;;;;24.50;16.73;;;230.70;2252.80;;;;;;4973537;28;20019;-58
2022/03/29 01:49:00;;;;;;;22.80;16.63;;;230.60;2252.80;;;;;;4973759;28;20541;-58
2022/03/29 01:51:26;;;;;;;21.75;16.35;;;230.60;2252.80;;;;;;4973590;28;20035;-61
2022/03/29 01:53:57;;;;;;;28.73;18.75;;;230.70;2252.80;;;;;;4973571;28;20396;-56
2022/03/29 01:56:27;;;;;;;27.80;18.92;;;230.80;2252.80;;;;;;4973380;28;20441;-58
2022/03/29 01:58:52;;;;;;;29.92;18.33;;;230.90;2252.80;;;;;;4973291;28;20026;-57
2022/03/29 02:01:18;;;;;;;29.27;19.23;;;230.90;2252.80;;;;;;4973157;28;20023;-56
2022/03/29 02:03:44;;;;;;;26.40;19.08;;;230.80;2252.80;;;;;;4963928;28;20073;-57
2022/03/29 02:06:10;;;;;;;27.15;17.25;;;230.90;2252.80;;;;;;4962125;28;20478;-54
2022/03/29 02:08:35;;;;;;;28.90;18.95;;;230.90;2252.80;;;;;;4964480;28;20031;-56
2022/03/29 02:11:01;;;;;;;26.23;18.65;;;230.90;2252.80;;;;;;4973172;28;20161;-59
2022/03/29 02:13:27;;;;;;;29.83;18.02;;;231.00;2252.80;;;;;;4972908;28;20039;-61
2022/03/29 02:15:53;;;;;;;31.98;20.55;;;231.00;2252.80;;;;;;4973107;28;20584;-57
2022/03/29 02:18:18;;;;;;;29.17;18.05;;;230.90;2252.80;;;;;;4973253;28;20113;-54
2022/03/29 02:20:44;;;;;;;31.15;19.10;;;230.90;2252.80;;;;;;4972891;28;20386;-55
2022/03/29 02:23:14;;;;;;;33.35;19.15;;;230.90;2252.80;;;;;;4973035;28;20489;-60
2022/03/29 02:25:40;;;;;;;27.33;19.42;;;230.90;2252.80;;;;;;4972868;28;20030;-55
2022/03/29 02:28:06;;;;;;;29.33;19.20;;;230.90;2252.80;;;;;;4972936;28;20022;-63
2022/03/29 02:30:36;;;;;;;32.83;21.25;;;230.80;2252.80;;;;;;4973084;28;20022;-55
2022/03/29 02:33:03;;;;;;;42.38;20.40;;;230.90;2252.80;;;;;;4972945;28;20045;-63
2022/03/29 02:35:28;;;;;;;33.33;20.77;;;230.90;2252.80;;;;;;4972873;28;20031;-58
2022/03/29 02:37:54;;;;;;;29.98;21.05;;;230.80;2252.80;;;;;;4972661;28;20033;-59
2022/03/29 02:40:20;;;;;;;31.40;23.58;;;230.70;2252.80;;;;;;4972606;28;20045;-59
2022/03/29 02:42:48;;;;;;;32.25;22.98;;;230.80;2252.80;;;;;;4972252;28;20540;-56
2022/03/29 02:45:15;;;;;;;38.38;24.65;;;230.90;2252.80;;;;;;4971920;28;20037;-56
2022/03/29 02:47:46;;;;;;;33.05;23.17;;;231.20;2252.80;;;;;;4972689;28;20105;-55
2022/03/29 02:50:13;;;;;;;32.22;22.80;;;256.20;2252.80;;;;;;4972440;28;20031;-56
2022/03/29 02:53:04;;;;;;;31.80;23.23;;;256.20;2252.80;;;;;;4972317;28;20045;-62
2022/03/29 02:55:33;;;;;;;39.22;24.35;;;256.40;2252.80;;;;;;4972158;28;20485;-55
2022/03/29 02:57:59;;;;;;;38.50;26.13;;;256.50;2252.80;;;;;;4972188;28;20059;-58
2022/03/29 03:00:25;;;;;;;34.42;25.38;;;256.70;2252.80;;;;;;4972318;28;20031;-55
2022/03/29 03:02:54;;;;;;;35.33;24.80;;;256.80;2252.80;;;;;;4972297;28;20027;-64
2022/03/29 03:05:20;;;;;;;36.47;24.88;;;256.90;2252.80;;;;;;4972141;28;20043;-64
2022/03/29 03:07:47;;;;;;;33.78;25.27;;;256.90;2252.80;;;;;;4972020;28;20384;-56
2022/03/29 03:10:14;;;;;;;41.88;26.25;;;256.80;2252.80;;;;;;4971834;28;20031;-57
2022/03/29 03:12:45;;;;;;;39.28;25.20;;;256.80;2252.80;;;;;;4971917;28;20093;-56
2022/03/29 03:15:13;;;;;;;34.22;25.42;;;256.80;2252.80;;;;;;4972236;28;20102;-59
2022/03/29 03:17:39;;;;;;;37.28;27.27;;;256.80;2252.80;;;;;;4972012;28;20090;-59
2022/03/29 03:20:06;;;;;;;38.88;27.83;;;256.80;2252.80;;;;;;4971727;28;20073;-56
2022/03/29 03:22:33;;;;;;;38.15;28.50;;;281.60;2201.60;;;;;;4971971;28;20032;-63
2022/03/29 03:24:59;;;;;;;40.05;27.88;;;281.60;2201.60;;;;;;4972140;28;20418;-57
2022/03/29 03:27:25;;;;;;;35.40;27.23;;;281.70;2201.60;;;;;;4971848;28;20022;-60
2022/03/29 03:29:51;;;;;;;37.10;25.20;;;256.90;2252.80;;;;;;4971849;28;20031;-61
2022/03/29 03:32:16;;;;;;;45.92;29.10;;;281.60;2227.20;;;;;;4971471;28;20031;-64
2022/03/29 03:34:42;;;;;;;42.20;29.23;;;281.70;2201.60;;;;;;4971807;28;20077;-64
2022/03/29 03:37:08;;;;;;;53.00;32.92;;;281.70;2176.00;;;;;;4971757;28;20072;-56
2022/03/29 03:39:37;;;;;;;53.72;32.58;;;281.70;2150.40;;;;;;4968449;28;20027;-56
2022/03/29 03:42:09;;;;;;;44.58;27.58;;;281.70;2176.00;;;;;;4961034;28;20031;-56
2022/03/29 03:44:38;;;;;;;52.08;33.33;;;281.70;2176.00;;;;;;4954690;28;20031;-55
2022/03/29 03:47:05;;;;;;;44.78;28.58;;;281.60;2176.00;;;;;;4960710;28;20035;-58
2022/03/29 03:49:31;;;;;;;45.05;30.85;;;281.60;2201.60;;;;;;4961572;28;20022;-57
2022/03/29 03:51:57;;;;;;;54.67;33.30;;;281.60;2201.60;;;;;;4959771;28;20031;-56
2022/03/29 03:54:22;;;;;;;47.88;29.17;;;281.60;2201.60;;;;;;4961381;28;20046;-57
2022/03/29 03:56:48;;;;;;;44.67;29.33;;;281.60;2176.00;;;;;;4961038;28;20027;-63
2022/03/29 03:59:14;;;;;;;38.35;26.80;;;281.70;2176.00;;;;;;4954879;28;20024;-58
2022/03/29 04:01:40;;;;;;;43.20;29.85;;;281.70;2150.40;;;;;;4952274;29;20027;-56
2022/03/29 04:04:05;;;;;;;41.05;28.58;;;281.80;2124.80;;;;;;4951844;29;20055;-60
2022/03/29 04:06:31;;;;;;;47.38;33.45;;;281.80;2099.20;;;;;;4952043;29;20023;-62
2022/03/29 04:08:57;;;;;;;53.95;35.92;;;281.80;2099.20;;;;;;4952055;29;20069;-58
2022/03/29 04:11:22;;;;;;;47.65;32.55;;;281.90;2099.20;;;;;;4951633;29;20028;-57
2022/03/29 04:13:48;;;;;;;49.17;32.95;;;281.90;2073.60;;;;;;4954347;28;20031;-59
2022/03/29 04:16:14;;;;;;;50.33;35.20;;;281.90;2099.20;;;;;;4951944;29;20019;-54
2022/03/29 04:18:40;;;;;;;59.28;37.58;;;281.90;2099.20;;;;;;4951963;29;20031;-60
2022/03/29 04:21:08;;;;;;;49.42;33.90;;;281.80;2124.80;;;;;;4951998;29;20038;-62
2022/03/29 04:23:35;;;;;;;46.85;33.70;;;281.70;2150.40;;;;;;4951726;29;20035;-57
2022/03/29 04:26:02;;;;;;;50.40;34.08;;;281.60;2176.00;;;;;;4951761;29;20100;-61
2022/03/29 04:28:27;;;;;;;51.35;35.67;;;281.60;2150.40;;;;;;4952316;29;20027;-58
2022/03/29 04:30:55;;;;;;;52.20;38.05;;;281.60;2176.00;;;;;;4958117;28;20031;-59
2022/03/29 04:33:22;;;;;;;56.17;40.83;;;281.60;2227.20;;;;;;4971302;28;20043;-62
2022/03/29 04:35:48;;;;;;;54.40;38.65;;;256.90;2227.20;;;;;;4958766;28;20415;-62
2022/03/29 04:38:13;;;;;;;55.10;35.60;;;256.90;2252.80;;;;;;4951675;29;20047;-60
2022/03/29 04:40:39;;;;;;;53.17;37.75;;;256.90;2252.80;;;;;;4951859;29;20478;-64
2022/03/29 04:43:05;;;;;;;52.47;33.75;;;256.80;2252.80;;;;;;4951448;29;20032;-57
2022/03/29 04:45:31;;;;;;;53.53;33.95;;;256.70;2252.80;;;;;;4951851;29;20386;-60
2022/03/29 04:47:57;;;;;;;53.20;39.13;;;256.70;2252.80;;;;;;4951628;29;20414;-63
2022/03/29 04:50:23;;;;;;;49.83;35.17;;;256.80;2252.80;;;;;;4951621;29;20031;-57
2022/03/29 04:52:49;;;;;;;64.05;41.47;;;256.80;2252.80;;;;;;4951506;29;20048;-59
2022/03/29 04:55:16;;;;;;;73.22;48.10;;;256.90;2252.80;;;;;;4951343;29;20031;-57
2022/03/29 04:57:43;;;;;;;82.88;58.20;;;281.70;2278.40;;;;;;4951617;29;20039;-56
2022/03/29 05:00:12;;;;;;;100.20;64.38;;;281.90;2227.20;;;;;;4954213;28;20030;-57
2022/03/29 05:02:41;;;;;;;55.20;39.25;;;282.00;2201.60;;;;;;4956944;28;20544;-63
2022/03/29 05:05:09;;;;;;;89.78;56.00;;;282.10;2124.80;;;;;;4951242;29;20581;-54
2022/03/29 05:07:35;;;;;;;75.30;48.42;;;282.30;2099.20;;;;;;4953100;28;20031;-56
2022/03/29 05:10:02;;;;;;;60.92;41.25;;;307.20;2073.60;;;;;;4955750;28;20016;-57
2022/03/29 05:12:28;;;;;;;50.72;35.55;;;307.40;2048.00;;;;;;4954239;29;20043;-57
2022/03/29 05:14:54;;;;;;;70.43;49.42;;;307.60;2022.40;;;;;;4954922;29;20086;-57
2022/03/29 05:17:20;;;;;;;100.32;67.22;;;307.90;1996.80;;;;;;4955197;29;20063;-61
2022/03/29 05:19:45;;;;;;;99.78;59.58;;;308.10;1945.60;;;;;;4954708;29;20471;-61
2022/03/29 05:22:12;;;;;;;62.30;44.75;;;332.90;1971.20;;;;;;4954927;29;20082;-62
2022/03/29 05:24:37;;;;;;;57.20;38.92;;;332.90;1945.60;;;;;;4954621;29;20027;-60
2022/03/29 05:27:03;;;;;;;74.93;52.42;;;332.90;1945.60;;;;;;4954810;29;20086;-55
2022/03/29 05:29:30;;;;;;;74.72;53.97;;;333.10;1894.40;;;;;;4954985;29;20019;-59
2022/03/29 05:31:57;;;;;;;75.50;54.75;;;333.30;1894.40;;;;;;4947095;29;20046;-57
2022/03/29 05:34:23;;;;;;;79.15;54.95;;;333.40;1894.40;;;;;;4954829;29;20391;-56
2022/03/29 05:36:50;;;;;;;60.38;44.13;;;333.40;1894.40;;;;;;4954531;29;20034;-56
2022/03/29 05:39:16;;;;;;;72.18;47.33;;;333.60;1920.00;;;;;;4954307;29;20023;-63
2022/03/29 05:41:43;;;;;;;58.10;41.50;;;;;;;;;;4954241;29;20031;-61
2022/03/29 05:44:09;;;;;;;53.42;40.42;;;358.50;1817.60;;;;;;4954758;29;20015;-62
2022/03/29 05:49:22;;;;;;;57.92;40.70;;;358.50;1843.20;;;;;;4954829;29;20092;-62
2022/03/29 05:51:49;;;;;;;59.60;40.65;;;358.70;1817.60;;;;;;4954183;29;20119;-61
2022/03/29 05:54:17;;;;;;;48.70;39.50;;;358.70;1817.60;;;;;;4947811;29;20443;-57
2022/03/29 05:56:43;;;;;;;53.95;40.72;;;358.90;1766.40;;;;;;4954065;28;20035;-58
2022/03/29 05:59:08;;;;;;;60.65;43.63;;;359.00;1766.40;;;;;;4954305;29;20050;-56
2022/03/29 06:01:34;;;;;;;56.70;39.70;;;359.10;1766.40;;;;;;4953846;29;20027;-58
2022/03/29 06:04:02;;;;;;;53.28;39.25;;;359.20;1740.80;;;;;;4954084;29;20452;-63
2022/03/29 06:06:27;;;;;;;49.60;36.88;;;384.00;1715.20;;;;;;4954098;29;20031;-63
2022/03/29 06:08:53;;;;;;;51.67;38.03;;;384.10;1689.60;;;;;;4953866;29;20033;-58
2022/03/29 06:11:21;;;;;;;42.22;34.72;;;384.70;1664.00;;;;;;4953677;29;20023;-58
2022/03/29 06:13:47;;;;;;;56.72;35.45;;;409.90;1612.80;;;;;;4953464;29;20043;-59
2022/03/29 06:16:13;;;;;;;43.17;33.78;;;410.50;1561.60;;;;;;4953671;29;20039;-60
2022/03/29 06:18:38;;;;;;;50.20;33.90;;;435.70;1510.40;;;;;;4953964;28;20023;-62
2022/03/29 06:21:04;;;;;;;49.65;35.67;;;435.90;1484.80;;;;;;4952808;29;20051;-58
2022/03/29 06:23:30;;;;;;;51.28;40.47;;;461.20;1459.20;;;;;;4954065;29;20038;-60
2022/03/29 06:25:56;;;;;;;51.83;36.90;;;486.70;1408.00;;;;;;4953853;29;20467;-62
2022/03/29 06:28:22;;;;;;;59.38;40.15;;;487.20;1356.80;;;;;;4953795;29;20102;-62
2022/03/29 06:30:48;;;;;;;62.28;45.80;;;512.90;1254.40;;;;;;4953572;29;20578;-59
2022/03/29 06:33:14;;;;;;;77.90;44.45;;;538.10;1280.00;;;;;;4953297;29;20126;-63
2022/03/29 06:35:40;;;;;;;99.45;64.43;;;538.40;1254.40;;;;;;4953466;29;20110;-63
2022/03/29 06:38:07;;;;;;;102.72;68.65;;;588.90;1203.20;;;;;;4953257;29;20397;-57
2022/03/29 06:40:33;;;;;;;92.75;66.18;;;614.80;1152.00;;;;;;4953338;29;20020;-59
2022/03/29 06:43:00;;;;;;;100.70;69.07;;;615.10;1075.20;;;;;;4953560;29;20042;-57
2022/03/29 06:45:27;;;;;;;64.38;54.08;;;640.30;1075.20;;;;;;4953406;29;20050;-57
2022/03/29 06:47:52;;;;;;;78.50;63.95;;;665.90;1049.60;;;;;;4953126;29;20107;-57
2022/03/29 06:50:18;;;;;;;92.03;61.58;;;665.90;1075.20;;;;;;4953218;29;20110;-57
2022/03/29 06:52:46;;;;;;;83.43;72.88;;;691.30;1049.60;;;;;;4952933;29;20478;-57
2022/03/29 06:55:15;;;;;;;100.85;89.38;;;691.50;1049.60;;;;;;4953190;29;20114;-57
2022/03/29 06:57:41;;;;;;;98.85;86.60;;;692.10;1024.00;;;;;;4953180;29;20114;-57
2022/03/29 07:00:11;;;;;;;84.03;74.72;;;717.40;1024.00;;;;;;4952899;29;20023;-64
2022/03/29 07:02:37;;;;;;;87.75;70.93;;;717.40;998.40;;;;;;4952685;29;20113;-62
2022/03/29 07:05:04;;;;;;;84.25;73.55;;;743.10;947.20;;;;;;4952602;29;20051;-57
2022/03/29 07:07:30;;;;;;;70.68;62.92;;;743.30;947.20;;;;;;4952867;29;20111;-64
2022/03/29 07:12:51;;;;;;;72.75;61.90;;;743.10;921.60;;;;;;4952526;29;20046;-58
2022/03/29 07:15:18;;;;;;;60.75;49.85;;;768.80;896.00;;;;;;4952566;29;20078;-60
2022/03/29 07:17:44;;;;;;;55.83;50.03;;;793.80;896.00;;;;;;4952551;29;20479;-62
2022/03/29 07:20:11;;;;;;;55.67;49.92;;;768.60;870.40;;;;;;4952854;29;20471;-57
2022/03/29 07:22:37;;;;;;;57.03;50.92;;;794.20;870.40;;;;;;4952467;29;20031;-58
2022/03/29 07:25:04;;;;;;;73.57;65.63;;;793.70;896.00;;;;;;4952461;29;20023;-58
2022/03/29 07:27:30;;;;;;;68.82;61.47;;;794.50;870.40;;;;;;4952568;29;20042;-57
2022/03/29 07:29:57;;;;;;;56.25;50.67;;;819.70;844.80;;;;;;4952371;29;20019;-57
2022/03/29 07:32:23;;;;;;;71.10;62.25;;;819.60;844.80;;;;;;4952227;28;20031;-58
2022/03/29 07:34:49;;;;;;;81.43;73.70;;;819.60;844.80;;;;;;4952421;29;20030;-58
2022/03/29 07:37:14;;;;;;;64.25;57.58;;;820.00;819.20;;;;;;4952508;29;20027;-56
2022/03/29 07:39:41;;;;;;;68.47;61.63;;;845.60;819.20;;;;;;4952495;29;20492;-55
2022/03/29 07:42:07;;;;;;;61.38;55.10;;;870.40;819.20;;;;;;4952275;29;20031;-56
2022/03/29 07:44:33;;;;;;;66.85;59.60;;;845.40;819.20;;;;;;4952171;29;20430;-59
2022/03/29 07:47:00;;;;;;;55.40;50.00;;;844.90;819.20;;;;;;4952250;29;20030;-63
2022/03/29 07:49:29;;;;;;;50.80;46.05;;;819.70;819.20;;;;;;4952173;29;20031;-56
2022/03/29 07:51:55;;;;;;;49.30;44.35;;;844.90;793.60;;;;;;4944219;29;20043;-64
2022/03/29 07:54:21;;;;;;;49.83;45.00;;;794.00;844.80;;;;;;4952169;29;20058;-64
2022/03/29 07:56:47;;;;;;;50.30;45.33;;;794.10;819.20;;;;;;4951963;29;20065;-64
2022/03/29 07:59:13;;;;;;;51.50;46.38;;;794.50;819.20;;;;;;4952289;29;20226;-57
2022/03/29 08:01:39;;;;;;;51.15;46.17;;;844.90;819.20;;;;;;4952017;29;20031;-59
2022/03/29 08:04:04;;;;;;;53.20;47.60;;;793.90;844.80;;;;;;4951554;29;20051;-61
2022/03/29 08:06:30;;;;;;;52.78;47.42;;;794.50;819.20;;;;;;4952259;29;20031;-60
2022/03/29 08:08:57;;;;;;;54.25;48.58;;;819.70;819.20;;;;;;4952004;29;20474;-59
2022/03/29 08:11:23;;;;;;;56.10;50.75;;;844.90;819.20;;;;;;4951809;29;20043;-62
2022/03/29 08:13:49;;;;;;;53.13;47.88;;;819.60;819.20;;;;;;4951843;29;20054;-64
2022/03/29 08:16:15;;;;;;;57.03;51.13;;;819.20;844.80;;;;;;4951929;29;20035;-61
2022/03/29 08:18:41;;;;;;;50.17;45.22;;;819.90;819.20;;;;;;4951979;29;20042;-58
2022/03/29 08:23:53;;;;;;;44.55;40.08;;;845.20;793.60;;;;;;4952285;29;20030;-58
2022/03/29 08:26:19;;;;;;;42.53;37.60;;;845.70;768.00;;;;;;4952085;29;20035;-61
2022/03/29 08:28:45;;;;;;;42.13;37.90;;;845.70;768.00;;;;;;4951683;29;20028;-56
2022/03/29 08:31:12;;;;;;;38.58;34.80;;;870.50;819.20;;;;;;4951789;29;20027;-57
2022/03/29 08:33:37;;;;;;;47.13;42.03;;;870.70;793.60;;;;;;4952048;29;20038;-57
2022/03/29 08:36:03;;;;;;;41.67;37.35;;;845.60;768.00;;;;;;4951689;29;20023;-61
2022/03/29 08:38:29;;;;;;;41.42;37.38;;;845.70;742.40;;;;;;4951800;29;20066;-56
2022/03/29 08:40:58;;;;;;;36.78;33.28;;;845.60;768.00;;;;;;4951643;29;20031;-64
2022/03/29 08:43:29;;;;;;;33.10;29.95;;;870.70;691.20;;;;;;4953083;28;20059;-59
2022/03/29 08:45:57;;;;;;;32.67;29.02;;;870.70;691.20;;;;;;4955311;29;20027;-59
2022/03/29 08:48:25;;;;;;;31.10;27.33;;;871.20;640.00;;;;;;4955543;29;20043;-63
2022/03/29 08:50:57;;;;;;;31.85;28.77;;;870.50;665.60;;;;;;4955354;29;20490;-56
2022/03/29 08:53:23;;;;;;;32.40;29.52;;;845.60;691.20;;;;;;4955210;29;20050;-60
2022/03/29 08:55:50;;;;;;;32.53;29.42;;;844.90;716.80;;;;;;4954958;29;20067;-62
2022/03/29 08:58:17;;;;;;;29.45;26.45;;;820.10;691.20;;;;;;4955002;29;20114;-55
2022/03/29 09:00:45;;;;;;;32.55;29.02;;;819.80;691.20;;;;;;4954844;29;20031;-60
2022/03/29 09:03:14;;;;;;;30.88;27.88;;;768.70;716.80;;;;;;4955050;29;20038;-62
2022/03/29 09:05:39;;;;;;;31.05;27.85;;;743.00;768.00;;;;;;4955055;29;20090;-58
2022/03/29 09:08:09;;;;;;;31.15;28.20;;;742.60;793.60;;;;;;4954864;29;20031;-61
2022/03/29 09:10:51;;;;;;;34.53;27.80;;;717.10;793.60;;;;;;4954801;29;20031;-62
2022/03/29 09:13:20;;;;;;;37.00;29.05;;;716.80;819.20;;;;;;4954989;29;20051;-60
2022/03/29 09:15:47;;;;;;;32.38;29.15;;;691.30;819.20;;;;;;4954892;29;20023;-61
2022/03/29 09:18:14;;;;;;;31.73;28.33;;;691.20;819.20;;;;;;4954794;29;20031;-56
2022/03/29 09:20:40;;;;;;;32.90;29.40;;;666.00;844.80;;;;;;4955070;29;20047;-61
2022/03/29 09:23:15;;;;;;;33.28;28.33;;;666.40;844.80;;;;;;4954786;29;20028;-60
2022/03/29 09:25:50;;;;;;;36.83;31.02;;;666.00;819.20;;;;;;4954705;29;20122;-60
2022/03/29 09:28:21;;;;;;;34.50;28.00;;;640.70;819.20;;;;;;4954444;29;20463;-62
2022/03/29 09:30:51;;;;;;;33.90;26.60;;;640.60;844.80;;;;;;4954678;29;20039;-60
2022/03/29 09:33:28;;;;;;;30.77;27.63;;;640.60;870.40;;;;;;4954347;29;20035;-60
2022/03/29 09:35:58;;;;;;;31.75;28.30;;;640.20;844.80;;;;;;4954552;29;20125;-60
2022/03/29 09:38:26;;;;;;;32.08;28.58;;;640.00;870.40;;;;;;4954524;29;20031;-61
2022/03/29 09:40:55;;;;;;;33.92;28.58;;;640.20;870.40;;;;;;4954687;29;20062;-63
2022/03/29 09:43:23;;;;;;;30.77;27.58;;;640.20;896.00;;;;;;4954324;29;20459;-61
2022/03/29 09:45:51;;;;;;;33.45;28.08;;;640.10;870.40;;;;;;4954459;29;20031;-61
2022/03/29 09:48:24;;;;;;;29.63;26.48;;;615.10;870.40;;;;;;4954146;29;20023;-58
2022/03/29 09:51:08;;;;;;;31.42;27.95;;;640.40;896.00;;;;;;4954401;29;20159;-58
2022/03/29 09:53:43;;;;;;;31.50;28.05;;;640.40;844.80;;;;;;4953889;28;20498;-59
2022/03/29 09:56:11;;;;;;;32.40;28.85;;;640.40;870.40;;;;;;4954156;29;20374;-59
2022/03/29 09:58:38;;;;;;;31.17;27.85;;;640.00;870.40;;;;;;4953986;29;20031;-61
2022/03/29 10:01:06;;;;;;;33.38;28.25;;;615.30;870.40;;;;;;4953896;29;20082;-62
2022/03/29 10:03:34;;;;;;;31.35;28.05;;;615.00;896.00;;;;;;4953894;29;20457;-61
2022/03/29 10:06:05;;;;;;;35.13;28.88;;;615.20;896.00;;;;;;4954088;29;20109;-60
2022/03/29 10:11:19;;;;;;;39.47;30.38;;;640.10;870.40;;;;;;4954013;29;20119;-55
2022/03/29 10:13:46;;;;;;;37.58;31.27;;;640.50;870.40;;;;;;4953622;29;20121;-60
2022/03/29 10:16:14;;;;;;;61.80;45.47;;;640.40;870.40;;;;;;4953740;29;20029;-55
2022/03/29 10:18:42;;;;;;;39.35;30.90;;;640.10;870.40;;;;;;4954103;29;20038;-56
2022/03/29 10:21:16;;;;;;;54.25;41.50;;;640.20;896.00;;;;;;4953724;29;20023;-61
2022/03/29 10:23:46;;;;;;;32.70;29.25;;;615.10;870.40;;;;;;4953856;29;20039;-61
2022/03/29 10:26:31;;;;;;;35.83;29.58;;;615.30;921.60;;;;;;4953537;29;20027;-60
2022/03/29 10:28:57;;;;;;;46.65;39.85;;;640.00;896.00;;;;;;4953691;29;20023;-58
2022/03/29 10:31:49;;;;;;;39.05;29.73;;;615.20;896.00;;;;;;4953888;29;20097;-57
2022/03/29 10:34:42;;;;;;;45.05;35.10;;;615.10;896.00;;;;;;4889237;29;20063;-59
2022/03/29 10:37:15;;;;;;;;;;;615.30;896.00;;;;;;4893691;29;20404;-59
2022/03/29 10:39:51;;;;;;;39.50;30.00;;;615.30;896.00;;;;;;4894531;29;19907;-60
2022/03/29 10:42:39;;;;;;;32.65;28.95;;;615.30;870.40;;;;;;4894037;29;20043;-57
2022/03/29 10:45:13;;;;;;;37.17;30.70;;;615.10;870.40;;;;;;4894071;29;20052;-61
2022/03/29 10:47:41;;;;;;;38.60;33.13;;;615.20;921.60;;;;;;4894240;29;20107;-56
2022/03/29 10:50:10;;;;;;;38.45;32.67;;;615.00;896.00;;;;;;4894045;29;20153;-56
2022/03/29 10:52:42;;;;;;;39.35;33.50;;;615.00;921.60;;;;;;4893881;29;20049;-60
2022/03/29 10:55:25;;;;;;;36.83;30.98;;;614.80;896.00;;;;;;4894104;29;20033;-60
2022/03/29 10:58:06;;;;;;;33.45;29.20;;;614.80;921.60;;;;;;4894060;29;20488;-60
2022/03/29 11:00:33;;;;;;;37.20;32.33;;;614.90;921.60;;;;;;4894132;29;20048;-56
2022/03/29 11:03:22;;;;;;;35.58;30.15;;;614.80;947.20;;;;;;4893840;29;20033;-63
2022/03/29 11:06:17;;;;;;;37.83;31.67;;;615.00;947.20;;;;;;4893097;29;20045;-56
2022/03/29 11:08:49;;;;;;;37.03;30.67;;;614.70;921.60;;;;;;4893793;29;20495;-57
2022/03/29 11:11:46;;;;;;;38.72;31.38;;;615.00;921.60;;;;;;4924039;29;20062;-56
2022/03/29 11:14:27;;;;;;;36.20;30.48;;;615.10;870.40;;;;;;4952577;29;20039;-55
2022/03/29 11:16:54;;;;;;;35.13;31.13;;;614.90;870.40;;;;;;4952746;29;20073;-55
2022/03/29 11:19:39;;;;;;;33.97;30.27;;;615.30;896.00;;;;;;4952831;29;20034;-55
2022/03/29 11:22:34;;;;;;;35.65;30.95;;;615.10;921.60;;;;;;4952683;29;20031;-60
2022/03/29 11:25:09;;;;;;;35.63;30.25;;;615.20;896.00;;;;;;4952934;29;20110;-56
2022/03/29 11:27:36;;;;;;;37.20;31.83;;;615.20;896.00;;;;;;4952308;29;20031;-55
2022/03/29 11:30:08;;;;;;;39.70;32.97;;;589.70;921.60;;;;;;4952529;29;20027;-61
2022/03/29 11:32:35;;;;;;;34.45;30.85;;;614.60;921.60;;;;;;4952354;29;20126;-59
2022/03/29 11:35:04;;;;;;;44.13;32.95;;;614.60;947.20;;;;;;4952600;29;20103;-56
2022/03/29 11:37:43;;;;;;;38.05;30.40;;;614.60;921.60;;;;;;4952655;29;20023;-59
2022/03/29 11:40:14;;;;;;;41.08;34.78;;;614.60;921.60;;;;;;4952521;29;20430;-55
2022/03/29 11:42:59;;;;;;;37.05;31.20;;;614.70;921.60;;;;;;4952486;29;20035;-55
2022/03/29 11:45:28;;;;;;;36.30;31.00;;;614.70;896.00;;;;;;4952416;29;20031;-55
2022/03/29 11:47:54;;;;;;;33.35;29.75;;;614.90;921.60;;;;;;4952191;29;20481;-56
2022/03/29 11:50:44;;;;;;;42.22;34.97;;;614.80;896.00;;;;;;4952411;29;20043;-57
2022/03/29 11:53:23;;;;;;;38.85;32.15;;;614.80;921.60;;;;;;4952163;29;20038;-60
2022/03/29 11:56:04;;;;;;;31.98;28.58;;;615.00;921.60;;;;;;4952200;29;20346;-59
2022/03/29 11:58:31;;;;;;;35.30;29.50;;;615.20;921.60;;;;;;4952214;29;20034;-56
2022/03/29 12:01:00;;;;;;;32.35;28.92;;;615.10;947.20;;;;;;4952024;29;20162;-61
2022/03/29 12:03:33;;;;;;;37.70;32.13;;;615.20;921.60;;;;;;4951798;29;20031;-56
2022/03/29 12:06:26;;;;;;;38.63;29.40;;;615.10;896.00;;;;;;4951990;29;20482;-56
2022/03/29 12:08:52;;;;;;;34.80;29.67;;;615.10;947.20;;;;;;4951399;29;20035;-55
2022/03/29 12:11:24;;;;;;;33.45;29.92;;;615.00;947.20;;;;;;4951732;29;20027;-61
2022/03/29 12:14:01;;;;;;;32.08;28.58;;;615.10;947.20;;;;;;4951787;29;20129;-55
2022/03/29 12:16:29;;;;;;;36.05;30.38;;;615.30;947.20;;;;;;4951824;29;20019;-55
2022/03/29 12:18:55;;;;;;;38.13;31.95;;;640.00;896.00;;;;;;4954399;28;20035;-60
2022/03/29 12:21:23;;;;;;;32.47;29.05;;;615.20;896.00;;;;;;4955935;29;20054;-57
2022/03/29 12:23:57;;;;;;;38.03;30.63;;;615.20;921.60;;;;;;4955884;29;20398;-55